sensor_id;sensor_type;location;lat;lon;timestamp;pressure;altitude;pressure_sealevel;temperature;humidity
1207;BME280;593;53.184;8.216;2023-02-19T00:01:37;101056.69;;;9.42;100.00
1207;BME280;593;53.184;8.216;2023-02-19T00:04:15;101050.47;;;9.37;100.00
1207;BME280;593;53.184;8.216;2023-02-19T00:06:41;101062.09;;;9.37;100.00
1207;BME280;593;53.184;8.216;2023-02-19T00:09:09;101067.28;;;9.34;100.00
1207;BME280;593;53.184;8.216;2023-02-19T00:11:34;101074.03;;;9.31;100.00
1207;BME280;593;53.184;8.216;2023-02-19T00:14:01;101066.97;;;9.30;100.00
1207;BME280;593;53.184;8.216;2023-02-19T00:16:32;101060.72;;;9.30;100.00
1207;BME280;593;53.184;8.216;2023-02-19T00:18:59;101065.31;;;9.24;100.00
1207;BME280;593;53.184;8.216;2023-02-19T00:21:25;101057.94;;;9.20;100.00
1207;BME280;593;53.184;8.216;2023-02-19T00:23:55;101069.94;;;9.24;100.00
1207;BME280;593;53.184;8.216;2023-02-19T00:26:22;101070.16;;;9.22;100.00
1207;BME280;593;53.184;8.216;2023-02-19T00:28:48;101072.09;;;9.22;100.00
1207;BME280;593;53.184;8.216;2023-02-19T00:33:40;101058.72;;;9.10;100.00
1207;BME280;593;53.184;8.216;2023-02-19T00:36:05;101072.31;;;9.15;100.00
1207;BME280;593;53.184;8.216;2023-02-19T00:38:34;101065.28;;;9.14;100.00
1207;BME280;593;53.184;8.216;2023-02-19T00:41:00;101078.25;;;9.12;100.00
1207;BME280;593;53.184;8.216;2023-02-19T00:43:49;101083.41;;;9.09;100.00
1207;BME280;593;53.184;8.216;2023-02-19T00:46:17;101070.09;;;9.07;100.00
1207;BME280;593;53.184;8.216;2023-02-19T00:48:42;101054.59;;;9.02;100.00
1207;BME280;593;53.184;8.216;2023-02-19T00:51:08;101053.78;;;9.02;100.00
1207;BME280;593;53.184;8.216;2023-02-19T00:53:33;101057.84;;;9.04;100.00
1207;BME280;593;53.184;8.216;2023-02-19T00:55:59;101069.81;;;9.03;100.00
1207;BME280;593;53.184;8.216;2023-02-19T00:58:24;101066.78;;;9.00;100.00
1207;BME280;593;53.184;8.216;2023-02-19T01:00:49;101074.09;;;8.99;100.00
1207;BME280;593;53.184;8.216;2023-02-19T01:03:15;101078.16;;;8.97;100.00
1207;BME280;593;53.184;8.216;2023-02-19T01:05:40;101071.94;;;8.96;100.00
1207;BME280;593;53.184;8.216;2023-02-19T01:08:05;101081.41;;;8.94;100.00
1207;BME280;593;53.184;8.216;2023-02-19T01:10:31;101081.94;;;8.91;100.00
1207;BME280;593;53.184;8.216;2023-02-19T01:12:56;101086.81;;;8.89;100.00
1207;BME280;593;53.184;8.216;2023-02-19T01:15:21;101088.69;;;8.88;100.00
1207;BME280;593;53.184;8.216;2023-02-19T01:17:46;101088.69;;;8.88;100.00
1207;BME280;593;53.184;8.216;2023-02-19T01:20:12;101085.69;;;8.85;100.00
1207;BME280;593;53.184;8.216;2023-02-19T01:22:37;101073.13;;;8.74;100.00
1207;BME280;593;53.184;8.216;2023-02-19T01:25:03;101098.72;;;8.88;100.00
1207;BME280;593;53.184;8.216;2023-02-19T01:27:28;101093.56;;;8.86;100.00
1207;BME280;593;53.184;8.216;2023-02-19T01:29:53;101094.09;;;8.83;100.00
1207;BME280;593;53.184;8.216;2023-02-19T01:32:19;101095.97;;;8.83;100.00
1207;BME280;593;53.184;8.216;2023-02-19T01:34:44;101083.75;;;8.80;100.00
1207;BME280;593;53.184;8.216;2023-02-19T01:37:09;101092.94;;;8.79;100.00
1207;BME280;593;53.184;8.216;2023-02-19T01:39:37;101092.94;;;8.79;100.00
1207;BME280;593;53.184;8.216;2023-02-19T01:42:04;101089.69;;;8.77;100.00
1207;BME280;593;53.184;8.216;2023-02-19T01:46:55;101083.72;;;8.75;100.00
1207;BME280;593;53.184;8.216;2023-02-19T01:49:28;101087.22;;;8.71;100.00
1207;BME280;593;53.184;8.216;2023-02-19T01:52:09;101093.19;;;8.73;100.00
1207;BME280;593;53.184;8.216;2023-02-19T01:54:40;101080.97;;;8.70;100.00
1207;BME280;593;53.184;8.216;2023-02-19T01:57:10;101085.31;;;8.71;100.00
1207;BME280;593;53.184;8.216;2023-02-19T01:59:37;101086.38;;;8.70;100.00
1207;BME280;593;53.184;8.216;2023-02-19T02:02:03;101088.53;;;8.68;100.00
1207;BME280;593;53.184;8.216;2023-02-19T02:04:30;101089.59;;;8.67;100.00
1207;BME280;593;53.184;8.216;2023-02-19T02:06:57;101088.22;;;8.65;100.00
1207;BME280;593;53.184;8.216;2023-02-19T02:09:26;101087.41;;;8.64;100.00
1207;BME280;593;53.184;8.216;2023-02-19T02:12:11;101091.41;;;8.52;100.00
1207;BME280;593;53.184;8.216;2023-02-19T02:14:39;101082.72;;;8.55;100.00
1207;BME280;593;53.184;8.216;2023-02-19T02:17:19;101086.53;;;8.54;100.00
1207;BME280;593;53.184;8.216;2023-02-19T02:31:16;101091.34;;;8.47;100.00
1207;BME280;593;53.184;8.216;2023-02-19T02:36:28;101094.31;;;8.45;100.00
1207;BME280;593;53.184;8.216;2023-02-19T02:38:56;101081.75;;;8.34;100.00
1207;BME280;593;53.184;8.216;2023-02-19T02:41:23;101102.16;;;8.42;100.00
1207;BME280;593;53.184;8.216;2023-02-19T02:43:49;101101.34;;;8.41;100.00
1207;BME280;593;53.184;8.216;2023-02-19T02:46:18;101102.09;;;8.36;100.00
1207;BME280;593;53.184;8.216;2023-02-19T02:48:54;101109.16;;;8.37;100.00
1207;BME280;593;53.184;8.216;2023-02-19T02:51:49;101115.13;;;8.39;100.00
1207;BME280;593;53.184;8.216;2023-02-19T02:54:19;101113.75;;;8.37;100.00
1207;BME280;593;53.184;8.216;2023-02-19T02:57:06;101128.38;;;8.36;100.00
1207;BME280;593;53.184;8.216;2023-02-19T02:59:36;101102.16;;;8.20;100.00
1207;BME280;593;53.184;8.216;2023-02-19T03:02:17;101124.28;;;8.33;100.00
1207;BME280;593;53.184;8.216;2023-02-19T03:05:05;101127.00;;;8.33;100.00
1207;BME280;593;53.184;8.216;2023-02-19T03:08:08;101128.06;;;8.32;100.00
1207;BME280;593;53.184;8.216;2023-02-19T03:10:38;101130.97;;;8.26;100.00
1207;BME280;593;53.184;8.216;2023-02-19T03:13:10;101142.13;;;8.29;100.00
1207;BME280;593;53.184;8.216;2023-02-19T03:16:01;101149.09;;;8.25;100.00
1207;BME280;593;53.184;8.216;2023-02-19T03:18:52;101156.69;;;8.23;100.00
1207;BME280;593;53.184;8.216;2023-02-19T03:21:38;101155.03;;;8.22;100.00
1207;BME280;593;53.184;8.216;2023-02-19T03:24:05;101165.03;;;8.22;100.00
1207;BME280;593;53.184;8.216;2023-02-19T03:26:51;101178.59;;;8.22;100.00
1207;BME280;593;53.184;8.216;2023-02-19T03:29:20;101169.66;;;8.21;100.00
1207;BME280;593;53.184;8.216;2023-02-19T03:32:22;101178.28;;;8.18;100.00
1207;BME280;593;53.184;8.216;2023-02-19T03:40:44;101174.97;;;8.11;100.00
1207;BME280;593;53.184;8.216;2023-02-19T03:43:22;101184.47;;;8.14;100.00
1207;BME280;593;53.184;8.216;2023-02-19T03:46:00;101192.59;;;8.14;100.00
1207;BME280;593;53.184;8.216;2023-02-19T03:48:35;101202.06;;;8.11;100.00
1207;BME280;593;53.184;8.216;2023-02-19T03:57:00;101216.09;;;8.08;100.00
1207;BME280;593;53.184;8.216;2023-02-19T03:59:54;101223.41;;;8.08;100.00
1207;BME280;593;53.184;8.216;2023-02-19T04:02:44;101230.72;;;8.07;100.00
1207;BME280;593;53.184;8.216;2023-02-19T04:05:18;101227.44;;;8.05;100.00
1207;BME280;593;53.184;8.216;2023-02-19T04:07:48;101232.03;;;8.05;100.00
1207;BME280;593;53.184;8.216;2023-02-19T04:10:16;101241.25;;;8.04;100.00
1207;BME280;593;53.184;8.216;2023-02-19T04:12:47;101247.72;;;8.03;100.00
1207;BME280;593;53.184;8.216;2023-02-19T04:15:17;101255.84;;;8.03;100.00
1207;BME280;593;53.184;8.216;2023-02-19T04:17:54;101267.50;;;8.03;100.00
1207;BME280;593;53.184;8.216;2023-02-19T04:20:23;101263.97;;;8.03;100.00
1207;BME280;593;53.184;8.216;2023-02-19T04:22:50;101268.75;;;7.96;100.00
1207;BME280;593;53.184;8.216;2023-02-19T04:25:16;101265.22;;;7.95;100.00
1207;BME280;593;53.184;8.216;2023-02-19T04:27:43;101277.50;;;8.03;100.00
1207;BME280;593;53.184;8.216;2023-02-19T04:30:11;101283.19;;;8.01;100.00
1207;BME280;593;53.184;8.216;2023-02-19T04:32:37;101280.16;;;7.98;100.00
1207;BME280;593;53.184;8.216;2023-02-19T04:35:03;101284.50;;;7.99;100.00
1207;BME280;593;53.184;8.216;2023-02-19T04:37:28;101291.81;;;7.98;100.00
1207;BME280;593;53.184;8.216;2023-02-19T04:39:53;101299.13;;;7.98;100.00
1207;BME280;593;53.184;8.216;2023-02-19T04:42:19;101299.94;;;7.98;100.00
1207;BME280;593;53.184;8.216;2023-02-19T04:44:44;101297.22;;;7.98;100.00
1207;BME280;593;53.184;8.216;2023-02-19T04:47:09;101296.41;;;7.98;100.00
1207;BME280;593;53.184;8.216;2023-02-19T04:49:35;101301.81;;;7.98;100.00
1207;BME280;593;53.184;8.216;2023-02-19T04:52:00;101311.84;;;7.97;100.00
1207;BME280;593;53.184;8.216;2023-02-19T04:54:25;101304.72;;;7.91;100.00
1207;BME280;593;53.184;8.216;2023-02-19T04:56:51;101324.31;;;7.98;100.00
1207;BME280;593;53.184;8.216;2023-02-19T04:59:16;101326.47;;;7.96;100.00
1207;BME280;593;53.184;8.216;2023-02-19T05:01:42;101339.19;;;7.96;100.00
1207;BME280;593;53.184;8.216;2023-02-19T05:04:07;101332.28;;;7.88;100.00
1207;BME280;593;53.184;8.216;2023-02-19T05:06:32;101344.59;;;7.96;100.00
1207;BME280;593;53.184;8.216;2023-02-19T05:08:58;101360.28;;;7.94;100.00
1207;BME280;593;53.184;8.216;2023-02-19T05:11:23;101359.44;;;7.93;100.00
1207;BME280;593;53.184;8.216;2023-02-19T05:13:49;101361.34;;;7.93;100.00
1207;BME280;593;53.184;8.216;2023-02-19T05:16:15;101351.75;;;7.85;100.00
1207;BME280;593;53.184;8.216;2023-02-19T05:18:43;101368.91;;;7.91;100.00
1207;BME280;593;53.184;8.216;2023-02-19T05:21:09;101368.06;;;7.90;100.00
1207;BME280;593;53.184;8.216;2023-02-19T05:23:35;101363.88;;;7.83;100.00
1207;BME280;593;53.184;8.216;2023-02-19T05:26:08;101380.78;;;7.90;100.00
1207;BME280;593;53.184;8.216;2023-02-19T05:28:34;101386.69;;;7.87;100.00
1207;BME280;593;53.184;8.216;2023-02-19T05:31:04;101390.78;;;7.89;100.00
1207;BME280;593;53.184;8.216;2023-02-19T05:33:29;101403.75;;;7.87;100.00
1207;BME280;593;53.184;8.216;2023-02-19T05:35:55;101397.94;;;7.79;100.00
1207;BME280;593;53.184;8.216;2023-02-19T05:38:21;101415.06;;;7.84;100.00
1207;BME280;593;53.184;8.216;2023-02-19T05:40:47;101414.28;;;7.84;100.00
1207;BME280;593;53.184;8.216;2023-02-19T05:43:13;101408.88;;;7.84;100.00
1207;BME280;593;53.184;8.216;2023-02-19T05:45:39;101387.59;;;7.75;100.00
1207;BME280;593;53.184;8.216;2023-02-19T05:48:06;101403.69;;;7.82;100.00
1207;BME280;593;53.184;8.216;2023-02-19T05:50:33;101403.69;;;7.82;100.00
1207;BME280;593;53.184;8.216;2023-02-19T05:53:02;101419.09;;;7.82;100.00
1207;BME280;593;53.184;8.216;2023-02-19T05:55:28;101424.78;;;7.80;100.00
1207;BME280;593;53.184;8.216;2023-02-19T05:57:54;101429.13;;;7.81;100.00
1207;BME280;593;53.184;8.216;2023-02-19T06:00:20;101435.59;;;7.80;100.00
1207;BME280;593;53.184;8.216;2023-02-19T06:02:46;101430.59;;;7.72;100.00
1207;BME280;593;53.184;8.216;2023-02-19T06:05:11;101441.19;;;7.73;100.00
1207;BME280;593;53.184;8.216;2023-02-19T06:07:38;101462.09;;;7.78;100.00
1207;BME280;593;53.184;8.216;2023-02-19T06:10:05;101459.41;;;7.78;100.00
1207;BME280;593;53.184;8.216;2023-02-19T06:12:31;101461.28;;;7.78;100.00
1207;BME280;593;53.184;8.216;2023-02-19T06:14:56;101464.00;;;7.78;100.00
1207;BME280;593;53.184;8.216;2023-02-19T06:17:21;101471.06;;;7.79;100.00
1207;BME280;593;53.184;8.216;2023-02-19T06:19:47;101479.41;;;7.77;100.00
1207;BME280;593;53.184;8.216;2023-02-19T06:22:13;101487.53;;;7.77;100.00
1207;BME280;593;53.184;8.216;2023-02-19T06:24:39;101485.91;;;7.76;100.00
1207;BME280;593;53.184;8.216;2023-02-19T06:27:05;101501.91;;;7.78;100.00
1207;BME280;593;53.184;8.216;2023-02-19T06:29:31;101500.25;;;7.76;100.00
1207;BME280;593;53.184;8.216;2023-02-19T06:31:57;101504.28;;;7.74;100.00
1207;BME280;593;53.184;8.216;2023-02-19T06:34:22;101513.78;;;7.76;100.00
1207;BME280;593;53.184;8.216;2023-02-19T06:36:48;101524.03;;;7.74;100.00
1207;BME280;593;53.184;8.216;2023-02-19T06:39:13;101522.16;;;7.75;100.00
1207;BME280;593;53.184;8.216;2023-02-19T06:41:39;101525.13;;;7.73;100.00
1207;BME280;593;53.184;8.216;2023-02-19T06:44:04;101533.38;;;7.67;100.00
1207;BME280;593;53.184;8.216;2023-02-19T06:46:29;101538.88;;;7.72;100.00
1207;BME280;593;53.184;8.216;2023-02-19T06:48:55;101548.91;;;7.71;100.00
1207;BME280;593;53.184;8.216;2023-02-19T06:51:20;101552.69;;;7.70;100.00
1207;BME280;593;53.184;8.216;2023-02-19T06:53:51;101559.75;;;7.71;100.00
1207;BME280;593;53.184;8.216;2023-02-19T06:56:33;101564.34;;;7.71;100.00
1207;BME280;593;53.184;8.216;2023-02-19T06:59:01;101568.47;;;7.62;100.00
1207;BME280;593;53.184;8.216;2023-02-19T07:01:28;101574.72;;;7.62;100.00
1207;BME280;593;53.184;8.216;2023-02-19T07:03:54;101598.72;;;7.70;100.00
1207;BME280;593;53.184;8.216;2023-02-19T07:06:21;101595.16;;;7.70;100.00
1207;BME280;593;53.184;8.216;2023-02-19T07:08:48;101589.75;;;7.70;100.00
1207;BME280;593;53.184;8.216;2023-02-19T07:11:14;101601.41;;;7.70;100.00
1207;BME280;593;53.184;8.216;2023-02-19T07:13:39;101599.75;;;7.69;100.00
1207;BME280;593;53.184;8.216;2023-02-19T07:16:07;101596.16;;;7.64;100.00
1207;BME280;593;53.184;8.216;2023-02-19T07:18:33;101600.59;;;7.70;100.00
1207;BME280;593;53.184;8.216;2023-02-19T07:21:10;101616.00;;;7.69;100.00
1207;BME280;593;53.184;8.216;2023-02-19T07:23:36;101613.28;;;7.69;100.00
1207;BME280;593;53.184;8.216;2023-02-19T07:26:02;101622.50;;;7.68;100.00
1207;BME280;593;53.184;8.216;2023-02-19T07:28:27;101626.81;;;7.69;100.00
1207;BME280;593;53.184;8.216;2023-02-19T07:30:53;101626.25;;;7.67;100.00
1207;BME280;593;53.184;8.216;2023-02-19T07:33:18;101633.06;;;7.70;100.00
1207;BME280;593;53.184;8.216;2023-02-19T07:35:48;101629.53;;;7.69;100.00
1207;BME280;593;53.184;8.216;2023-02-19T07:38:19;101628.50;;;7.70;100.00
1207;BME280;593;53.184;8.216;2023-02-19T07:40:55;101622.25;;;7.70;100.00
1207;BME280;593;53.184;8.216;2023-02-19T07:43:22;101634.94;;;7.69;100.00
1207;BME280;593;53.184;8.216;2023-02-19T07:45:48;101641.19;;;7.70;100.00
1207;BME280;593;53.184;8.216;2023-02-19T07:48:14;101639.47;;;7.64;100.00
1207;BME280;593;53.184;8.216;2023-02-19T07:50:39;101657.22;;;7.71;100.00
1207;BME280;593;53.184;8.216;2023-02-19T07:53:05;101655.09;;;7.73;100.00
1207;BME280;593;53.184;8.216;2023-02-19T07:55:31;101645.78;;;7.69;100.00
1207;BME280;593;53.184;8.216;2023-02-19T07:57:57;101646.72;;;7.75;100.00
1207;BME280;593;53.184;8.216;2023-02-19T08:00:23;101640.16;;;7.71;100.00
1207;BME280;593;53.184;8.216;2023-02-19T08:02:50;101643.19;;;7.74;100.00
1207;BME280;593;53.184;8.216;2023-02-19T08:05:32;101644.00;;;7.75;100.00
1207;BME280;593;53.184;8.216;2023-02-19T08:07:59;101650.25;;;7.75;100.00
1207;BME280;593;53.184;8.216;2023-02-19T08:10:25;101652.97;;;7.75;100.00
1207;BME280;593;53.184;8.216;2023-02-19T08:13:14;101660.00;;;7.76;100.00
1207;BME280;593;53.184;8.216;2023-02-19T08:15:51;101651.31;;;7.74;100.00
1207;BME280;593;53.184;8.216;2023-02-19T08:18:18;101671.19;;;7.80;100.00
1207;BME280;593;53.184;8.216;2023-02-19T08:20:45;101675.56;;;7.81;100.00
1207;BME280;593;53.184;8.216;2023-02-19T08:23:11;101670.94;;;7.82;100.00
1207;BME280;593;53.184;8.216;2023-02-19T08:25:37;101674.25;;;7.84;100.00
1207;BME280;593;53.184;8.216;2023-02-19T08:28:04;101660.38;;;7.80;100.00
1207;BME280;593;53.184;8.216;2023-02-19T08:30:30;101675.88;;;7.85;100.00
1207;BME280;593;53.184;8.216;2023-02-19T08:32:57;101669.53;;;7.79;100.00
1207;BME280;593;53.184;8.216;2023-02-19T08:35:23;101677.53;;;7.86;100.00
1207;BME280;593;53.184;8.216;2023-02-19T08:37:48;101680.00;;;7.87;100.00
1207;BME280;593;53.184;8.216;2023-02-19T08:40:14;101684.13;;;7.90;100.00
1207;BME280;593;53.184;8.216;2023-02-19T08:42:39;101703.06;;;7.90;100.00
1207;BME280;593;53.184;8.216;2023-02-19T08:45:05;101700.16;;;7.91;100.00
1207;BME280;593;53.184;8.216;2023-02-19T08:47:33;101698.03;;;7.93;100.00
1207;BME280;593;53.184;8.216;2023-02-19T08:49:59;101699.66;;;7.94;100.00
1207;BME280;593;53.184;8.216;2023-02-19T08:52:24;101706.72;;;7.95;100.00
1207;BME280;593;53.184;8.216;2023-02-19T08:54:49;101730.06;;;7.96;100.00
1207;BME280;593;53.184;8.216;2023-02-19T08:57:15;101727.09;;;7.98;100.00
1207;BME280;593;53.184;8.216;2023-02-19T08:59:40;101727.91;;;7.98;100.00
1207;BME280;593;53.184;8.216;2023-02-19T09:02:07;101726.03;;;7.99;100.00
1207;BME280;593;53.184;8.216;2023-02-19T09:04:33;101731.22;;;8.00;100.00
1207;BME280;593;53.184;8.216;2023-02-19T09:06:58;101737.47;;;8.01;100.00
1207;BME280;593;53.184;8.216;2023-02-19T09:09:23;101745.59;;;8.01;100.00
1207;BME280;593;53.184;8.216;2023-02-19T09:11:49;101748.88;;;8.03;100.00
1207;BME280;593;53.184;8.216;2023-02-19T09:14:14;101745.22;;;7.97;100.00
1207;BME280;593;53.184;8.216;2023-02-19T09:16:39;101764.66;;;8.06;100.00
1207;BME280;593;53.184;8.216;2023-02-19T09:19:05;101775.25;;;8.07;100.00
1207;BME280;593;53.184;8.216;2023-02-19T09:21:30;101781.50;;;8.08;100.00
1207;BME280;593;53.184;8.216;2023-02-19T09:23:55;101783.72;;;8.11;100.00
1207;BME280;593;53.184;8.216;2023-02-19T09:26:21;101801.63;;;8.12;100.00
1207;BME280;593;53.184;8.216;2023-02-19T09:28:46;101813.06;;;8.14;100.00
1207;BME280;593;53.184;8.216;2023-02-19T09:31:14;101813.88;;;8.14;100.00
1207;BME280;593;53.184;8.216;2023-02-19T09:33:44;101814.94;;;8.13;100.00
1207;BME280;593;53.184;8.216;2023-02-19T09:36:10;101820.47;;;8.18;100.00
1207;BME280;593;53.184;8.216;2023-02-19T09:38:36;101819.66;;;8.18;100.00
1207;BME280;593;53.184;8.216;2023-02-19T09:41:20;101827.06;;;8.22;100.00
1207;BME280;593;53.184;8.216;2023-02-19T09:43:46;101839.56;;;8.23;100.00
1207;BME280;593;53.184;8.216;2023-02-19T09:46:34;101840.38;;;8.24;100.00
1207;BME280;593;53.184;8.216;2023-02-19T09:49:17;101846.16;;;8.27;100.00
1207;BME280;593;53.184;8.216;2023-02-19T09:54:36;101851.59;;;8.27;100.00
1207;BME280;593;53.184;8.216;2023-02-19T09:57:03;101864.91;;;8.29;100.00
1207;BME280;593;53.184;8.216;2023-02-19T09:59:45;101871.75;;;8.31;100.00
1207;BME280;593;53.184;8.216;2023-02-19T10:02:15;101867.13;;;8.32;100.00
1207;BME280;593;53.184;8.216;2023-02-19T10:04:42;101857.38;;;8.31;100.00
1207;BME280;593;53.184;8.216;2023-02-19T10:07:16;101874.56;;;8.36;100.00
1207;BME280;593;53.184;8.216;2023-02-19T10:09:56;101870.34;;;8.29;100.00
1207;BME280;593;53.184;8.216;2023-02-19T10:12:26;101883.50;;;8.37;100.00
1207;BME280;593;53.184;8.216;2023-02-19T10:14:56;101872.44;;;8.38;100.00
1207;BME280;593;53.184;8.216;2023-02-19T10:17:27;101864.06;;;8.40;100.00
1207;BME280;593;53.184;8.216;2023-02-19T10:19:54;101865.25;;;8.44;100.00
1207;BME280;593;53.184;8.216;2023-02-19T10:22:20;101863.00;;;8.41;100.00
1207;BME280;593;53.184;8.216;2023-02-19T10:24:49;101854.16;;;8.46;100.00
1207;BME280;593;53.184;8.216;2023-02-19T10:27:16;101861.25;;;8.47;100.00
1207;BME280;593;53.184;8.216;2023-02-19T10:29:42;101863.44;;;8.50;100.00
1207;BME280;593;53.184;8.216;2023-02-19T10:32:18;101851.91;;;8.43;100.00
1207;BME280;593;53.184;8.216;2023-02-19T10:34:46;101868.97;;;8.55;100.00
1207;BME280;593;53.184;8.216;2023-02-19T10:37:16;101884.78;;;8.58;100.00
1207;BME280;593;53.184;8.216;2023-02-19T10:39:45;101886.44;;;8.59;100.00
1207;BME280;593;53.184;8.216;2023-02-19T10:42:20;101903.03;;;8.62;100.00
1207;BME280;593;53.184;8.216;2023-02-19T10:44:55;101917.19;;;8.64;100.00
1207;BME280;593;53.184;8.216;2023-02-19T10:47:25;101924.72;;;8.62;100.00
1207;BME280;593;53.184;8.216;2023-02-19T10:49:52;101933.69;;;8.63;100.00
1207;BME280;593;53.184;8.216;2023-02-19T10:52:25;101936.53;;;8.68;100.00
1207;BME280;593;53.184;8.216;2023-02-19T10:54:54;101929.31;;;8.62;100.00
1207;BME280;593;53.184;8.216;2023-02-19T10:57:24;101936.88;;;8.71;100.00
1207;BME280;593;53.184;8.216;2023-02-19T11:00:18;101942.31;;;8.71;100.00
1207;BME280;593;53.184;8.216;2023-02-19T11:02:46;101943.47;;;8.75;100.00
1207;BME280;593;53.184;8.216;2023-02-19T11:07:51;101935.19;;;8.82;100.00
1207;BME280;593;53.184;8.216;2023-02-19T11:12:56;101938.63;;;8.89;100.00
1207;BME280;593;53.184;8.216;2023-02-19T11:15:34;101937.78;;;8.88;100.00
1207;BME280;593;53.184;8.216;2023-02-19T11:20:29;101934.34;;;8.93;100.00
1207;BME280;593;53.184;8.216;2023-02-19T11:22:59;101933.28;;;8.94;100.00
1207;BME280;593;53.184;8.216;2023-02-19T11:25:26;101907.94;;;8.77;100.00
1207;BME280;593;53.184;8.216;2023-02-19T11:30:44;101929.59;;;9.00;100.00
1207;BME280;593;53.184;8.216;2023-02-19T11:35:58;101935.38;;;9.03;100.00
1207;BME280;593;53.184;8.216;2023-02-19T11:38:25;101932.91;;;9.02;100.00
1207;BME280;593;53.184;8.216;2023-02-19T11:52:37;101923.22;;;9.06;100.00
1207;BME280;593;53.184;8.216;2023-02-19T11:55:46;101928.19;;;9.09;100.00
1207;BME280;593;53.184;8.216;2023-02-19T11:58:54;101931.47;;;9.11;100.00
1207;BME280;593;53.184;8.216;2023-02-19T12:01:42;101928.50;;;9.13;100.00
1207;BME280;593;53.184;8.216;2023-02-19T12:07:12;101939.22;;;9.19;100.00
1207;BME280;593;53.184;8.216;2023-02-19T12:15:04;101941.31;;;9.29;100.00
1207;BME280;593;53.184;8.216;2023-02-19T12:25:56;101919.22;;;9.37;100.00
1207;BME280;593;53.184;8.216;2023-02-19T12:34:44;101905.78;;;9.47;100.00
1207;BME280;593;53.184;8.216;2023-02-19T12:45:18;101914.56;;;9.65;100.00
1207;BME280;593;53.184;8.216;2023-02-19T12:48:00;101931.78;;;9.71;100.00
1207;BME280;593;53.184;8.216;2023-02-19T12:50:28;101925.25;;;9.72;100.00
1207;BME280;593;53.184;8.216;2023-02-19T12:53:00;101935.63;;;9.75;100.00
1207;BME280;593;53.184;8.216;2023-02-19T12:55:40;101939.53;;;9.79;100.00
1207;BME280;593;53.184;8.216;2023-02-19T12:58:12;101933.84;;;9.81;100.00
1207;BME280;593;53.184;8.216;2023-02-19T13:00:47;101943.97;;;9.85;100.00
1207;BME280;593;53.184;8.216;2023-02-19T13:06:00;101947.84;;;9.89;100.00
1207;BME280;593;53.184;8.216;2023-02-19T13:08:32;101942.16;;;9.91;100.00
1207;BME280;593;53.184;8.216;2023-02-19T13:11:04;101932.13;;;9.91;100.00
1207;BME280;593;53.184;8.216;2023-02-19T13:13:35;101928.41;;;9.97;100.00
1207;BME280;593;53.184;8.216;2023-02-19T13:16:08;101927.69;;;10.02;100.00
1207;BME280;593;53.184;8.216;2023-02-19T13:18:49;101929.88;;;10.05;100.00
1207;BME280;593;53.184;8.216;2023-02-19T13:21:18;101937.53;;;10.08;100.00
1207;BME280;593;53.184;8.216;2023-02-19T13:24:06;101936.03;;;10.12;100.00
1207;BME280;593;53.184;8.216;2023-02-19T13:32:53;101958.91;;;10.16;100.00
1207;BME280;593;53.184;8.216;2023-02-19T13:38:16;101949.69;;;10.17;100.00
1207;BME280;593;53.184;8.216;2023-02-19T13:40:57;101957.59;;;10.18;100.00
1207;BME280;593;53.184;8.216;2023-02-19T13:43:27;101955.94;;;10.17;100.00
1207;BME280;593;53.184;8.216;2023-02-19T13:46:03;101964.91;;;10.18;100.00
1207;BME280;593;53.184;8.216;2023-02-19T13:48:32;101971.75;;;10.20;100.00
1207;BME280;593;53.184;8.216;2023-02-19T13:56:40;101969.63;;;10.22;100.00
1207;BME280;593;53.184;8.216;2023-02-19T14:04:21;101974.81;;;10.24;100.00
1207;BME280;593;53.184;8.216;2023-02-19T14:14:41;101966.41;;;10.25;100.00
1207;BME280;593;53.184;8.216;2023-02-19T14:19:46;101957.41;;;10.25;100.00
1207;BME280;593;53.184;8.216;2023-02-19T14:28:05;101930.22;;;10.25;100.00
1207;BME280;593;53.184;8.216;2023-02-19T14:30:56;101917.72;;;10.24;100.00
1207;BME280;593;53.184;8.216;2023-02-19T14:33:30;101914.75;;;10.25;100.00
1207;BME280;593;53.184;8.216;2023-02-19T14:36:02;101896.47;;;10.21;100.00
1207;BME280;593;53.184;8.216;2023-02-19T14:38:36;101899.53;;;10.24;100.00
1207;BME280;593;53.184;8.216;2023-02-19T14:41:03;101895.72;;;10.25;100.00
1207;BME280;593;53.184;8.216;2023-02-19T14:43:32;101895.72;;;10.25;100.00
1207;BME280;593;53.184;8.216;2023-02-19T14:46:00;101893.00;;;10.25;100.00
1207;BME280;593;53.184;8.216;2023-02-19T14:48:38;101887.75;;;10.19;100.00
1207;BME280;593;53.184;8.216;2023-02-19T14:51:13;101893.81;;;10.26;100.00
1207;BME280;593;53.184;8.216;2023-02-19T14:53:42;101886.50;;;10.26;100.00
1207;BME280;593;53.184;8.216;2023-02-19T14:56:19;101894.88;;;10.25;100.00
1207;BME280;593;53.184;8.216;2023-02-19T14:58:45;101894.09;;;10.24;100.00
1207;BME280;593;53.184;8.216;2023-02-19T15:01:27;101887.81;;;10.24;100.00
1207;BME280;593;53.184;8.216;2023-02-19T15:03:53;101899.53;;;10.24;100.00
1207;BME280;593;53.184;8.216;2023-02-19T15:06:20;101897.59;;;10.25;100.00
1207;BME280;593;53.184;8.216;2023-02-19T15:08:50;101895.13;;;10.23;100.00
1207;BME280;593;53.184;8.216;2023-02-19T15:11:22;101898.13;;;10.22;100.00
1207;BME280;593;53.184;8.216;2023-02-19T15:13:58;101905.44;;;10.21;100.00
1207;BME280;593;53.184;8.216;2023-02-19T15:16:26;101919.59;;;10.23;100.00
1207;BME280;593;53.184;8.216;2023-02-19T15:18:52;101917.16;;;10.22;100.00
1207;BME280;593;53.184;8.216;2023-02-19T15:21:22;101915.22;;;10.22;100.00
1207;BME280;593;53.184;8.216;2023-02-19T15:23:49;101915.50;;;10.21;100.00
1207;BME280;593;53.184;8.216;2023-02-19T15:26:35;101905.50;;;10.10;100.00
1207;BME280;593;53.184;8.216;2023-02-19T15:29:08;101915.50;;;10.21;100.00
1207;BME280;593;53.184;8.216;2023-02-19T15:31:34;101916.81;;;10.18;100.00
1207;BME280;593;53.184;8.216;2023-02-19T15:33:59;101924.72;;;10.20;100.00
1207;BME280;593;53.184;8.216;2023-02-19T15:36:28;101920.59;;;10.17;100.00
1207;BME280;593;53.184;8.216;2023-02-19T15:39:00;101918.69;;;10.18;100.00
1207;BME280;593;53.184;8.216;2023-02-19T15:41:28;101931.72;;;10.16;100.00
1207;BME280;593;53.184;8.216;2023-02-19T15:46:45;101932.59;;;10.05;100.00